Lacey, Washington
Current Conditions -  °F | °C
As of 12:54 AM on Friday 24 Oct 2014 (Local Time) from KOLM Reporting Station
Overcast Overcast  
Wind Chill: 45°   Ceiling: 7000
Heat Index: 48°   Visibility: 10mi
Dew Point: 46°   Wind: 6mph
Humidity: 93%   Direction: 160°SSE
Pressure: 30.02"   Gusts: NA
Location:  47.04°N, 122.82°W
Report Text: KOLM 240754Z AUTO 16005KT 10SM FEW003 SCT055 OVC070 09/08 A3002 RMK AO2 RAE52 SLP164 P0005 T00890078 401440078
Loading
Personal Weather Stations






























Interactive Weather Map
Tropical Storm Tracking
New forecast layout! Learn more

10-Day Weather Forecast

Advertisements
Track Severe Weather on mobile